Bronx, NY (10458)

3:59 AM EST on December 10, 2016 (GMT -0500)
Bronx Community College | | Change Station

Elev 184 ft 40.86 °N, 73.91 °W | Updated 6 seconds ago

Clear
Clear
29.4 °F
Feels Like 23 °F
N
6.1
Wind Variable Wind from WNW
Gusts 0.0 mph

Today
High -- | Low -- °F
--% Chance of Precip.
Yesterday
High -- | Low -- °F
Precip. -- in
Pressure 30.32 in
Visibility 10.0 miles
Clouds Clear
Windchill 23 °F
Dew Point 20 °F
Humidity 68%
Rainfall 0.00 in
Snow Depth Not available.
7:09 AM 4:27 PM
Waxing Gibbous, 82% visible
METAR KLGA 100851Z 31011KT 10SM CLR M01/M09 A3032 RMK AO2 SLP268 T10061089 51014
Pressure 30.32 in
Visibility 10.0 miles
Clouds Clear
Windchill 23 °F
Dew Point 20 °F
Humidity 68%
Rainfall 0.00 in
Snow Depth Not available.
7:09 AM 4:27 PM
Waxing Gibbous, 82% visible
METAR KLGA 100851Z 31011KT 10SM CLR M01/M09 A3032 RMK AO2 SLP268 T10061089 51014

10-Day Weather Forecast

Almanac

Astronomy

Dec. 10, 2016 Rise Set
Actual Time
Civil Twilight
Nautical Twilight
Astronomical Twilight
Moon
Length of Visible Light
Length of Day
Tomorrow will be .
, % of the Moon is Illuminated

Today's Extremes

State Highs State Lows

Community

WunderPhotos

Upload Photos

1,956,538 photos uploaded!

WunderBlog® & News

Nearby

Air Quality

  Air Quality AQ Index Pollutant
Not available.

Snow Depth

Station Depth Elevation

Earthquake Activity

City Distance Mag. Time & Date
Minimum magnitude displayed is 2.5.

Coastal Water Temperatures

Place Temperature

Stations

Nearby Weather Stations

Station Location Temp. Windchill Dew Point Humidity Wind Precip. Elev Updated Type
                   

Watches & Warnings

There are currently no watches in effect.